sensor_id;sensor_type;location;lat;lon;timestamp;P1;durP1;ratioP1;P2;durP2;ratioP2
41323;SDS011;27073;51.128;4.220;2023-05-07T00:01:53;12.05;;;7.30;;
41323;SDS011;27073;51.128;4.220;2023-05-07T00:04:19;10.43;;;7.45;;
41323;SDS011;27073;51.128;4.220;2023-05-07T00:06:45;10.00;;;7.50;;
41323;SDS011;27073;51.128;4.220;2023-05-07T00:09:11;7.38;;;6.65;;
41323;SDS011;27073;51.128;4.220;2023-05-07T00:11:37;9.25;;;6.82;;
41323;SDS011;27073;51.128;4.220;2023-05-07T00:14:03;8.35;;;7.38;;
41323;SDS011;27073;51.128;4.220;2023-05-07T00:16:29;11.48;;;7.25;;
41323;SDS011;27073;51.128;4.220;2023-05-07T00:18:54;10.95;;;7.93;;
41323;SDS011;27073;51.128;4.220;2023-05-07T00:21:20;10.40;;;7.18;;
41323;SDS011;27073;51.128;4.220;2023-05-07T00:23:46;11.10;;;8.05;;
41323;SDS011;27073;51.128;4.220;2023-05-07T00:26:12;13.70;;;7.57;;
41323;SDS011;27073;51.128;4.220;2023-05-07T00:28:40;14.07;;;7.57;;
41323;SDS011;27073;51.128;4.220;2023-05-07T00:31:06;10.18;;;7.03;;
41323;SDS011;27073;51.128;4.220;2023-05-07T00:33:31;11.23;;;7.20;;
41323;SDS011;27073;51.128;4.220;2023-05-07T00:35:57;8.95;;;6.30;;
41323;SDS011;27073;51.128;4.220;2023-05-07T00:38:23;12.07;;;7.75;;
41323;SDS011;27073;51.128;4.220;2023-05-07T00:40:48;10.77;;;8.05;;
41323;SDS011;27073;51.128;4.220;2023-05-07T00:43:15;11.40;;;6.95;;
41323;SDS011;27073;51.128;4.220;2023-05-07T00:45:42;9.63;;;7.95;;
41323;SDS011;27073;51.128;4.220;2023-05-07T00:48:07;12.30;;;7.63;;
41323;SDS011;27073;51.128;4.220;2023-05-07T00:50:33;8.85;;;6.80;;
41323;SDS011;27073;51.128;4.220;2023-05-07T00:52:59;11.45;;;6.95;;
41323;SDS011;27073;51.128;4.220;2023-05-07T00:55:25;12.07;;;6.00;;
41323;SDS011;27073;51.128;4.220;2023-05-07T00:57:51;11.70;;;6.80;;
41323;SDS011;27073;51.128;4.220;2023-05-07T01:00:17;10.00;;;6.82;;
41323;SDS011;27073;51.128;4.220;2023-05-07T01:02:44;9.38;;;7.40;;
41323;SDS011;27073;51.128;4.220;2023-05-07T01:05:12;11.07;;;6.82;;
41323;SDS011;27073;51.128;4.220;2023-05-07T01:07:40;11.00;;;6.80;;
41323;SDS011;27073;51.128;4.220;2023-05-07T01:10:08;13.50;;;7.22;;
41323;SDS011;27073;51.128;4.220;2023-05-07T01:12:35;10.38;;;7.50;;
41323;SDS011;27073;51.128;4.220;2023-05-07T01:15:02;9.07;;;6.75;;
41323;SDS011;27073;51.128;4.220;2023-05-07T01:17:29;10.80;;;7.82;;
41323;SDS011;27073;51.128;4.220;2023-05-07T01:19:58;11.85;;;7.95;;
41323;SDS011;27073;51.128;4.220;2023-05-07T01:22:30;9.30;;;7.47;;
41323;SDS011;27073;51.128;4.220;2023-05-07T01:25:02;12.70;;;8.05;;
41323;SDS011;27073;51.128;4.220;2023-05-07T01:27:30;15.00;;;8.20;;
41323;SDS011;27073;51.128;4.220;2023-05-07T01:29:56;12.18;;;8.57;;
41323;SDS011;27073;51.128;4.220;2023-05-07T01:32:27;11.85;;;8.25;;
41323;SDS011;27073;51.128;4.220;2023-05-07T01:34:58;9.63;;;8.20;;
41323;SDS011;27073;51.128;4.220;2023-05-07T01:37:26;11.05;;;8.10;;
41323;SDS011;27073;51.128;4.220;2023-05-07T01:39:53;11.13;;;8.05;;
41323;SDS011;27073;51.128;4.220;2023-05-07T01:42:19;11.38;;;8.27;;
41323;SDS011;27073;51.128;4.220;2023-05-07T01:44:45;17.08;;;8.35;;
41323;SDS011;27073;51.128;4.220;2023-05-07T01:47:11;11.80;;;8.20;;
41323;SDS011;27073;51.128;4.220;2023-05-07T01:49:38;10.48;;;7.68;;
41323;SDS011;27073;51.128;4.220;2023-05-07T01:52:05;11.75;;;8.40;;
41323;SDS011;27073;51.128;4.220;2023-05-07T01:54:31;11.90;;;8.18;;
41323;SDS011;27073;51.128;4.220;2023-05-07T01:56:58;12.50;;;7.88;;
41323;SDS011;27073;51.128;4.220;2023-05-07T01:59:24;10.90;;;8.65;;
41323;SDS011;27073;51.128;4.220;2023-05-07T02:01:50;10.45;;;7.97;;
41323;SDS011;27073;51.128;4.220;2023-05-07T02:04:15;11.02;;;8.80;;
41323;SDS011;27073;51.128;4.220;2023-05-07T02:06:41;11.65;;;8.60;;
41323;SDS011;27073;51.128;4.220;2023-05-07T02:09:09;10.55;;;9.10;;
41323;SDS011;27073;51.128;4.220;2023-05-07T02:11:38;13.65;;;9.30;;
41323;SDS011;27073;51.128;4.220;2023-05-07T02:14:04;11.80;;;9.32;;
41323;SDS011;27073;51.128;4.220;2023-05-07T02:16:30;12.00;;;8.85;;
41323;SDS011;27073;51.128;4.220;2023-05-07T02:18:56;12.50;;;9.30;;
41323;SDS011;27073;51.128;4.220;2023-05-07T02:21:23;12.00;;;10.52;;
41323;SDS011;27073;51.128;4.220;2023-05-07T02:23:50;12.48;;;9.30;;
41323;SDS011;27073;51.128;4.220;2023-05-07T02:26:18;10.73;;;8.65;;
41323;SDS011;27073;51.128;4.220;2023-05-07T02:28:44;11.23;;;8.85;;
41323;SDS011;27073;51.128;4.220;2023-05-07T02:31:10;11.73;;;8.55;;
41323;SDS011;27073;51.128;4.220;2023-05-07T02:33:35;10.20;;;8.73;;
41323;SDS011;27073;51.128;4.220;2023-05-07T02:36:08;12.55;;;9.02;;
41323;SDS011;27073;51.128;4.220;2023-05-07T02:38:37;11.00;;;8.88;;
41323;SDS011;27073;51.128;4.220;2023-05-07T02:41:04;9.77;;;8.77;;
41323;SDS011;27073;51.128;4.220;2023-05-07T02:43:30;12.77;;;9.43;;
41323;SDS011;27073;51.128;4.220;2023-05-07T02:46:05;10.75;;;8.57;;
41323;SDS011;27073;51.128;4.220;2023-05-07T02:48:36;12.60;;;8.63;;
41323;SDS011;27073;51.128;4.220;2023-05-07T02:51:02;11.10;;;7.43;;
41323;SDS011;27073;51.128;4.220;2023-05-07T02:53:28;10.18;;;9.27;;
41323;SDS011;27073;51.128;4.220;2023-05-07T02:55:58;10.70;;;8.38;;
41323;SDS011;27073;51.128;4.220;2023-05-07T02:58:24;12.32;;;9.70;;
41323;SDS011;27073;51.128;4.220;2023-05-07T03:00:51;13.25;;;9.65;;
41323;SDS011;27073;51.128;4.220;2023-05-07T03:03:39;10.32;;;9.23;;
41323;SDS011;27073;51.128;4.220;2023-05-07T03:06:08;10.88;;;9.10;;
41323;SDS011;27073;51.128;4.220;2023-05-07T03:08:33;11.75;;;9.32;;
41323;SDS011;27073;51.128;4.220;2023-05-07T03:10:59;11.65;;;9.05;;
41323;SDS011;27073;51.128;4.220;2023-05-07T03:13:25;12.55;;;9.52;;
41323;SDS011;27073;51.128;4.220;2023-05-07T03:15:51;12.85;;;10.13;;
41323;SDS011;27073;51.128;4.220;2023-05-07T03:18:17;11.15;;;9.57;;
41323;SDS011;27073;51.128;4.220;2023-05-07T03:20:42;11.52;;;9.75;;
41323;SDS011;27073;51.128;4.220;2023-05-07T03:23:08;12.85;;;9.73;;
41323;SDS011;27073;51.128;4.220;2023-05-07T03:25:35;11.43;;;9.65;;
41323;SDS011;27073;51.128;4.220;2023-05-07T03:28:01;11.55;;;9.27;;
41323;SDS011;27073;51.128;4.220;2023-05-07T03:30:35;13.75;;;11.13;;
41323;SDS011;27073;51.128;4.220;2023-05-07T03:33:01;13.57;;;11.43;;
41323;SDS011;27073;51.128;4.220;2023-05-07T03:35:27;13.60;;;9.65;;
41323;SDS011;27073;51.128;4.220;2023-05-07T03:37:52;13.07;;;10.38;;
41323;SDS011;27073;51.128;4.220;2023-05-07T03:40:20;12.88;;;11.57;;
41323;SDS011;27073;51.128;4.220;2023-05-07T03:42:50;12.13;;;10.07;;
41323;SDS011;27073;51.128;4.220;2023-05-07T03:45:18;13.13;;;11.82;;
41323;SDS011;27073;51.128;4.220;2023-05-07T03:47:51;19.10;;;13.20;;
41323;SDS011;27073;51.128;4.220;2023-05-07T03:50:19;13.15;;;11.85;;
41323;SDS011;27073;51.128;4.220;2023-05-07T03:52:45;14.27;;;12.80;;
41323;SDS011;27073;51.128;4.220;2023-05-07T03:55:12;15.70;;;14.00;;
41323;SDS011;27073;51.128;4.220;2023-05-07T03:57:41;16.00;;;14.38;;
41323;SDS011;27073;51.128;4.220;2023-05-07T04:00:07;19.83;;;17.63;;
41323;SDS011;27073;51.128;4.220;2023-05-07T04:02:45;19.58;;;17.55;;
41323;SDS011;27073;51.128;4.220;2023-05-07T04:05:13;19.77;;;17.70;;
41323;SDS011;27073;51.128;4.220;2023-05-07T04:07:41;20.90;;;17.40;;
41323;SDS011;27073;51.128;4.220;2023-05-07T04:10:07;20.52;;;18.23;;
41323;SDS011;27073;51.128;4.220;2023-05-07T04:12:33;18.83;;;16.23;;
41323;SDS011;27073;51.128;4.220;2023-05-07T04:15:00;16.55;;;13.75;;
41323;SDS011;27073;51.128;4.220;2023-05-07T04:17:26;17.08;;;14.38;;
41323;SDS011;27073;51.128;4.220;2023-05-07T04:19:52;17.63;;;15.40;;
41323;SDS011;27073;51.128;4.220;2023-05-07T04:22:18;20.65;;;17.27;;
41323;SDS011;27073;51.128;4.220;2023-05-07T04:24:44;17.20;;;15.40;;
41323;SDS011;27073;51.128;4.220;2023-05-07T04:27:11;16.60;;;14.98;;
41323;SDS011;27073;51.128;4.220;2023-05-07T04:29:38;15.75;;;14.02;;
41323;SDS011;27073;51.128;4.220;2023-05-07T04:32:09;15.13;;;12.82;;
41323;SDS011;27073;51.128;4.220;2023-05-07T04:34:37;18.63;;;13.55;;
41323;SDS011;27073;51.128;4.220;2023-05-07T04:37:03;18.45;;;13.32;;
41323;SDS011;27073;51.128;4.220;2023-05-07T04:39:29;13.52;;;12.10;;
41323;SDS011;27073;51.128;4.220;2023-05-07T04:41:56;13.10;;;11.90;;
41323;SDS011;27073;51.128;4.220;2023-05-07T04:44:23;12.88;;;11.50;;
41323;SDS011;27073;51.128;4.220;2023-05-07T04:46:50;13.75;;;12.35;;
41323;SDS011;27073;51.128;4.220;2023-05-07T04:49:15;14.43;;;11.70;;
41323;SDS011;27073;51.128;4.220;2023-05-07T04:51:43;13.80;;;12.40;;
41323;SDS011;27073;51.128;4.220;2023-05-07T04:54:10;13.40;;;12.10;;
41323;SDS011;27073;51.128;4.220;2023-05-07T04:56:36;13.55;;;11.48;;
41323;SDS011;27073;51.128;4.220;2023-05-07T04:59:02;15.27;;;12.35;;
41323;SDS011;27073;51.128;4.220;2023-05-07T05:01:29;14.57;;;12.80;;
41323;SDS011;27073;51.128;4.220;2023-05-07T05:03:56;13.50;;;12.00;;
41323;SDS011;27073;51.128;4.220;2023-05-07T05:06:21;13.70;;;12.50;;
41323;SDS011;27073;51.128;4.220;2023-05-07T05:08:48;14.30;;;12.73;;
41323;SDS011;27073;51.128;4.220;2023-05-07T05:11:14;12.35;;;11.15;;
41323;SDS011;27073;51.128;4.220;2023-05-07T05:13:40;13.02;;;11.77;;
41323;SDS011;27073;51.128;4.220;2023-05-07T05:16:11;13.35;;;11.93;;
41323;SDS011;27073;51.128;4.220;2023-05-07T05:18:38;12.55;;;11.25;;
41323;SDS011;27073;51.128;4.220;2023-05-07T05:21:04;12.82;;;11.48;;
41323;SDS011;27073;51.128;4.220;2023-05-07T05:23:31;13.52;;;12.18;;
41323;SDS011;27073;51.128;4.220;2023-05-07T05:25:57;12.43;;;11.20;;
41323;SDS011;27073;51.128;4.220;2023-05-07T05:28:25;12.80;;;11.32;;
41323;SDS011;27073;51.128;4.220;2023-05-07T05:30:52;12.18;;;11.05;;
41323;SDS011;27073;51.128;4.220;2023-05-07T05:33:18;13.07;;;11.05;;
41323;SDS011;27073;51.128;4.220;2023-05-07T05:35:44;13.80;;;11.65;;
41323;SDS011;27073;51.128;4.220;2023-05-07T05:38:11;12.05;;;10.93;;
41323;SDS011;27073;51.128;4.220;2023-05-07T05:40:38;13.13;;;11.77;;
41323;SDS011;27073;51.128;4.220;2023-05-07T05:43:04;13.23;;;11.85;;
41323;SDS011;27073;51.128;4.220;2023-05-07T05:45:31;12.63;;;11.30;;
41323;SDS011;27073;51.128;4.220;2023-05-07T05:47:57;12.02;;;10.93;;
41323;SDS011;27073;51.128;4.220;2023-05-07T05:50:23;15.27;;;11.95;;
41323;SDS011;27073;51.128;4.220;2023-05-07T05:52:49;12.23;;;10.77;;
41323;SDS011;27073;51.128;4.220;2023-05-07T05:55:16;12.90;;;11.20;;
41323;SDS011;27073;51.128;4.220;2023-05-07T05:57:42;13.50;;;12.10;;
41323;SDS011;27073;51.128;4.220;2023-05-07T06:00:08;12.77;;;11.50;;
41323;SDS011;27073;51.128;4.220;2023-05-07T06:02:43;13.27;;;12.00;;
41323;SDS011;27073;51.128;4.220;2023-05-07T06:05:11;13.48;;;11.60;;
41323;SDS011;27073;51.128;4.220;2023-05-07T06:07:37;14.55;;;11.95;;
41323;SDS011;27073;51.128;4.220;2023-05-07T06:10:03;12.90;;;11.45;;
41323;SDS011;27073;51.128;4.220;2023-05-07T06:12:32;13.20;;;11.90;;
41323;SDS011;27073;51.128;4.220;2023-05-07T06:14:58;13.23;;;11.57;;
41323;SDS011;27073;51.128;4.220;2023-05-07T06:17:27;13.63;;;12.20;;
41323;SDS011;27073;51.128;4.220;2023-05-07T06:19:52;13.82;;;12.05;;
41323;SDS011;27073;51.128;4.220;2023-05-07T06:22:19;13.40;;;11.57;;
41323;SDS011;27073;51.128;4.220;2023-05-07T06:24:45;12.60;;;11.40;;
41323;SDS011;27073;51.128;4.220;2023-05-07T06:27:11;13.90;;;12.07;;
41323;SDS011;27073;51.128;4.220;2023-05-07T06:29:38;15.40;;;12.60;;
41323;SDS011;27073;51.128;4.220;2023-05-07T06:32:11;13.75;;;12.40;;
41323;SDS011;27073;51.128;4.220;2023-05-07T06:34:40;13.90;;;12.50;;
41323;SDS011;27073;51.128;4.220;2023-05-07T06:37:06;13.77;;;12.48;;
41323;SDS011;27073;51.128;4.220;2023-05-07T06:39:58;14.65;;;12.25;;
41323;SDS011;27073;51.128;4.220;2023-05-07T06:42:23;14.32;;;12.82;;
41323;SDS011;27073;51.128;4.220;2023-05-07T06:44:49;14.07;;;12.75;;
41323;SDS011;27073;51.128;4.220;2023-05-07T06:47:17;15.88;;;14.35;;
41323;SDS011;27073;51.128;4.220;2023-05-07T06:49:46;15.13;;;13.63;;
41323;SDS011;27073;51.128;4.220;2023-05-07T06:52:15;15.93;;;14.43;;
41323;SDS011;27073;51.128;4.220;2023-05-07T06:54:41;15.65;;;13.90;;
41323;SDS011;27073;51.128;4.220;2023-05-07T06:57:07;14.55;;;13.02;;
41323;SDS011;27073;51.128;4.220;2023-05-07T06:59:34;13.88;;;12.48;;
41323;SDS011;27073;51.128;4.220;2023-05-07T07:01:59;14.65;;;13.13;;
41323;SDS011;27073;51.128;4.220;2023-05-07T07:04:25;14.15;;;12.55;;
41323;SDS011;27073;51.128;4.220;2023-05-07T07:06:59;13.25;;;11.32;;
41323;SDS011;27073;51.128;4.220;2023-05-07T07:09:24;13.30;;;10.27;;
41323;SDS011;27073;51.128;4.220;2023-05-07T07:11:51;13.43;;;11.30;;
41323;SDS011;27073;51.128;4.220;2023-05-07T07:14:18;12.35;;;9.80;;
41323;SDS011;27073;51.128;4.220;2023-05-07T07:16:48;11.70;;;8.55;;
41323;SDS011;27073;51.128;4.220;2023-05-07T07:19:16;10.18;;;7.93;;
41323;SDS011;27073;51.128;4.220;2023-05-07T07:21:42;9.77;;;8.00;;
41323;SDS011;27073;51.128;4.220;2023-05-07T07:24:10;14.63;;;7.18;;
41323;SDS011;27073;51.128;4.220;2023-05-07T07:26:36;11.40;;;6.38;;
41323;SDS011;27073;51.128;4.220;2023-05-07T07:29:02;10.10;;;5.82;;
41323;SDS011;27073;51.128;4.220;2023-05-07T07:31:28;8.93;;;6.13;;
41323;SDS011;27073;51.128;4.220;2023-05-07T07:33:54;9.88;;;6.07;;
41323;SDS011;27073;51.128;4.220;2023-05-07T07:36:20;8.80;;;5.30;;
41323;SDS011;27073;51.128;4.220;2023-05-07T07:38:46;14.82;;;5.63;;
41323;SDS011;27073;51.128;4.220;2023-05-07T07:41:12;11.60;;;5.43;;
41323;SDS011;27073;51.128;4.220;2023-05-07T07:43:38;9.77;;;5.03;;
41323;SDS011;27073;51.128;4.220;2023-05-07T07:46:04;11.10;;;6.00;;
41323;SDS011;27073;51.128;4.220;2023-05-07T07:48:30;12.10;;;5.38;;
41323;SDS011;27073;51.128;4.220;2023-05-07T07:50:57;9.07;;;5.00;;
41323;SDS011;27073;51.128;4.220;2023-05-07T07:53:23;11.65;;;5.00;;
41323;SDS011;27073;51.128;4.220;2023-05-07T07:55:48;12.13;;;5.00;;
41323;SDS011;27073;51.128;4.220;2023-05-07T07:58:17;8.38;;;5.00;;
41323;SDS011;27073;51.128;4.220;2023-05-07T08:00:43;11.20;;;5.88;;
41323;SDS011;27073;51.128;4.220;2023-05-07T08:03:10;10.68;;;6.03;;
41323;SDS011;27073;51.128;4.220;2023-05-07T08:05:40;13.60;;;5.47;;
41323;SDS011;27073;51.128;4.220;2023-05-07T08:08:07;8.43;;;5.00;;
41323;SDS011;27073;51.128;4.220;2023-05-07T08:10:36;12.70;;;5.15;;
41323;SDS011;27073;51.128;4.220;2023-05-07T08:13:08;9.75;;;4.72;;
41323;SDS011;27073;51.128;4.220;2023-05-07T08:15:35;8.68;;;4.40;;
41323;SDS011;27073;51.128;4.220;2023-05-07T08:18:02;8.55;;;4.30;;
41323;SDS011;27073;51.128;4.220;2023-05-07T08:20:28;9.73;;;4.70;;
41323;SDS011;27073;51.128;4.220;2023-05-07T08:22:55;9.13;;;4.75;;
41323;SDS011;27073;51.128;4.220;2023-05-07T08:25:21;9.35;;;4.57;;
41323;SDS011;27073;51.128;4.220;2023-05-07T08:27:47;8.27;;;4.55;;
41323;SDS011;27073;51.128;4.220;2023-05-07T08:30:15;8.57;;;4.40;;
41323;SDS011;27073;51.128;4.220;2023-05-07T08:32:41;10.18;;;4.82;;
41323;SDS011;27073;51.128;4.220;2023-05-07T08:35:07;8.13;;;3.90;;
41323;SDS011;27073;51.128;4.220;2023-05-07T08:37:33;8.05;;;4.80;;
41323;SDS011;27073;51.128;4.220;2023-05-07T08:39:59;8.35;;;4.28;;
41323;SDS011;27073;51.128;4.220;2023-05-07T08:42:30;10.50;;;4.40;;
41323;SDS011;27073;51.128;4.220;2023-05-07T08:45:00;8.80;;;4.00;;
41323;SDS011;27073;51.128;4.220;2023-05-07T08:47:35;7.65;;;3.78;;
41323;SDS011;27073;51.128;4.220;2023-05-07T08:50:07;9.40;;;5.03;;
41323;SDS011;27073;51.128;4.220;2023-05-07T08:52:34;11.13;;;4.50;;
41323;SDS011;27073;51.128;4.220;2023-05-07T08:55:01;7.78;;;3.90;;
41323;SDS011;27073;51.128;4.220;2023-05-07T08:57:29;10.25;;;4.85;;
41323;SDS011;27073;51.128;4.220;2023-05-07T08:59:55;8.50;;;5.15;;
41323;SDS011;27073;51.128;4.220;2023-05-07T09:02:21;12.02;;;5.53;;
41323;SDS011;27073;51.128;4.220;2023-05-07T09:04:47;9.32;;;4.80;;
41323;SDS011;27073;51.128;4.220;2023-05-07T09:07:13;9.43;;;4.95;;
41323;SDS011;27073;51.128;4.220;2023-05-07T09:09:43;9.18;;;4.70;;
41323;SDS011;27073;51.128;4.220;2023-05-07T09:12:10;6.80;;;4.60;;
41323;SDS011;27073;51.128;4.220;2023-05-07T09:14:36;11.27;;;4.75;;
41323;SDS011;27073;51.128;4.220;2023-05-07T09:17:03;9.70;;;4.55;;
41323;SDS011;27073;51.128;4.220;2023-05-07T09:19:29;9.65;;;4.93;;
41323;SDS011;27073;51.128;4.220;2023-05-07T09:21:59;6.32;;;4.30;;
41323;SDS011;27073;51.128;4.220;2023-05-07T09:24:28;8.43;;;4.35;;
41323;SDS011;27073;51.128;4.220;2023-05-07T09:26:59;7.40;;;4.28;;
41323;SDS011;27073;51.128;4.220;2023-05-07T09:29:26;7.38;;;4.60;;
41323;SDS011;27073;51.128;4.220;2023-05-07T09:32:01;7.93;;;4.25;;
41323;SDS011;27073;51.128;4.220;2023-05-07T09:34:29;9.35;;;4.30;;
41323;SDS011;27073;51.128;4.220;2023-05-07T09:36:56;7.43;;;4.18;;
41323;SDS011;27073;51.128;4.220;2023-05-07T09:39:28;8.40;;;4.35;;
41323;SDS011;27073;51.128;4.220;2023-05-07T09:42:16;10.30;;;4.70;;
41323;SDS011;27073;51.128;4.220;2023-05-07T09:44:49;7.93;;;4.97;;
41323;SDS011;27073;51.128;4.220;2023-05-07T09:47:19;10.77;;;5.22;;
41323;SDS011;27073;51.128;4.220;2023-05-07T09:49:50;5.80;;;4.25;;
41323;SDS011;27073;51.128;4.220;2023-05-07T09:52:23;8.80;;;4.80;;
41323;SDS011;27073;51.128;4.220;2023-05-07T09:54:52;9.52;;;5.07;;
41323;SDS011;27073;51.128;4.220;2023-05-07T09:57:22;8.52;;;4.88;;
41323;SDS011;27073;51.128;4.220;2023-05-07T09:59:55;12.00;;;5.50;;
41323;SDS011;27073;51.128;4.220;2023-05-07T10:02:22;10.10;;;4.78;;
41323;SDS011;27073;51.128;4.220;2023-05-07T10:04:52;10.02;;;5.45;;
41323;SDS011;27073;51.128;4.220;2023-05-07T10:07:24;9.30;;;5.70;;
41323;SDS011;27073;51.128;4.220;2023-05-07T10:09:54;9.27;;;5.65;;
41323;SDS011;27073;51.128;4.220;2023-05-07T10:12:30;12.80;;;7.25;;
41323;SDS011;27073;51.128;4.220;2023-05-07T10:15:03;10.25;;;6.40;;
41323;SDS011;27073;51.128;4.220;2023-05-07T10:17:40;10.02;;;6.03;;
41323;SDS011;27073;51.128;4.220;2023-05-07T10:20:07;11.65;;;5.68;;
41323;SDS011;27073;51.128;4.220;2023-05-07T10:22:38;9.93;;;6.07;;
41323;SDS011;27073;51.128;4.220;2023-05-07T10:25:28;11.15;;;5.57;;
41323;SDS011;27073;51.128;4.220;2023-05-07T10:28:00;7.90;;;5.50;;
41323;SDS011;27073;51.128;4.220;2023-05-07T10:33:21;15.32;;;6.70;;
41323;SDS011;27073;51.128;4.220;2023-05-07T10:35:51;10.32;;;6.82;;
41323;SDS011;27073;51.128;4.220;2023-05-07T10:38:24;8.65;;;5.70;;
41323;SDS011;27073;51.128;4.220;2023-05-07T10:40:53;9.13;;;5.72;;
41323;SDS011;27073;51.128;4.220;2023-05-07T10:43:19;9.50;;;5.85;;
41323;SDS011;27073;51.128;4.220;2023-05-07T10:46:13;8.23;;;5.40;;
41323;SDS011;27073;51.128;4.220;2023-05-07T10:51:28;11.18;;;5.72;;
41323;SDS011;27073;51.128;4.220;2023-05-07T10:56:36;9.00;;;5.05;;
41323;SDS011;27073;51.128;4.220;2023-05-07T11:04:23;7.65;;;4.65;;
41323;SDS011;27073;51.128;4.220;2023-05-07T11:15:14;6.15;;;3.70;;
41323;SDS011;27073;51.128;4.220;2023-05-07T11:17:58;8.13;;;3.95;;
41323;SDS011;27073;51.128;4.220;2023-05-07T11:26:13;8.60;;;5.28;;
41323;SDS011;27073;51.128;4.220;2023-05-07T11:28:41;8.52;;;4.72;;
41323;SDS011;27073;51.128;4.220;2023-05-07T11:31:10;7.03;;;3.95;;
41323;SDS011;27073;51.128;4.220;2023-05-07T11:33:37;10.30;;;5.47;;
41323;SDS011;27073;51.128;4.220;2023-05-07T11:36:07;7.45;;;5.03;;
41323;SDS011;27073;51.128;4.220;2023-05-07T11:38:38;8.02;;;4.05;;
41323;SDS011;27073;51.128;4.220;2023-05-07T11:41:04;8.00;;;4.22;;
41323;SDS011;27073;51.128;4.220;2023-05-07T11:43:31;6.47;;;3.80;;
41323;SDS011;27073;51.128;4.220;2023-05-07T11:46:10;21.17;;;5.18;;
41323;SDS011;27073;51.128;4.220;2023-05-07T11:48:37;7.10;;;4.07;;
41323;SDS011;27073;51.128;4.220;2023-05-07T11:51:07;5.90;;;3.90;;
41323;SDS011;27073;51.128;4.220;2023-05-07T11:53:38;7.30;;;3.80;;
41323;SDS011;27073;51.128;4.220;2023-05-07T11:56:08;7.60;;;4.43;;
41323;SDS011;27073;51.128;4.220;2023-05-07T11:58:35;8.40;;;4.63;;
41323;SDS011;27073;51.128;4.220;2023-05-07T12:01:01;7.38;;;3.83;;
41323;SDS011;27073;51.128;4.220;2023-05-07T12:03:27;8.40;;;3.88;;
41323;SDS011;27073;51.128;4.220;2023-05-07T12:05:53;6.53;;;3.95;;
41323;SDS011;27073;51.128;4.220;2023-05-07T12:08:19;6.50;;;3.72;;
41323;SDS011;27073;51.128;4.220;2023-05-07T12:10:48;7.78;;;3.78;;
41323;SDS011;27073;51.128;4.220;2023-05-07T12:13:18;5.97;;;3.53;;
41323;SDS011;27073;51.128;4.220;2023-05-07T12:15:45;10.95;;;4.20;;
41323;SDS011;27073;51.128;4.220;2023-05-07T12:18:11;6.00;;;3.85;;
41323;SDS011;27073;51.128;4.220;2023-05-07T12:20:38;6.38;;;3.28;;
41323;SDS011;27073;51.128;4.220;2023-05-07T12:23:04;6.05;;;4.10;;
41323;SDS011;27073;51.128;4.220;2023-05-07T12:25:31;6.45;;;4.43;;
41323;SDS011;27073;51.128;4.220;2023-05-07T12:28:00;6.30;;;3.45;;
41323;SDS011;27073;51.128;4.220;2023-05-07T12:30:26;8.13;;;3.55;;
41323;SDS011;27073;51.128;4.220;2023-05-07T12:32:55;6.03;;;3.20;;
41323;SDS011;27073;51.128;4.220;2023-05-07T12:35:32;5.93;;;3.28;;
41323;SDS011;27073;51.128;4.220;2023-05-07T12:38:07;6.35;;;2.85;;
41323;SDS011;27073;51.128;4.220;2023-05-07T12:40:38;7.70;;;3.50;;
41323;SDS011;27073;51.128;4.220;2023-05-07T12:43:15;4.97;;;3.00;;
41323;SDS011;27073;51.128;4.220;2023-05-07T12:45:49;6.00;;;2.70;;
41323;SDS011;27073;51.128;4.220;2023-05-07T12:48:16;3.55;;;1.92;;
41323;SDS011;27073;51.128;4.220;2023-05-07T12:50:44;4.82;;;2.20;;
41323;SDS011;27073;51.128;4.220;2023-05-07T12:53:10;3.38;;;1.67;;
41323;SDS011;27073;51.128;4.220;2023-05-07T12:55:50;4.95;;;2.13;;
41323;SDS011;27073;51.128;4.220;2023-05-07T12:58:17;4.28;;;2.05;;
41323;SDS011;27073;51.128;4.220;2023-05-07T13:00:44;4.20;;;2.05;;
41323;SDS011;27073;51.128;4.220;2023-05-07T13:03:16;4.95;;;1.90;;
41323;SDS011;27073;51.128;4.220;2023-05-07T13:05:50;5.18;;;2.10;;
41323;SDS011;27073;51.128;4.220;2023-05-07T13:08:23;4.40;;;1.60;;
41323;SDS011;27073;51.128;4.220;2023-05-07T13:10:57;3.65;;;1.48;;
41323;SDS011;27073;51.128;4.220;2023-05-07T13:13:28;4.88;;;2.00;;
41323;SDS011;27073;51.128;4.220;2023-05-07T13:15:54;5.70;;;2.03;;
41323;SDS011;27073;51.128;4.220;2023-05-07T13:18:19;3.65;;;1.85;;
41323;SDS011;27073;51.128;4.220;2023-05-07T13:20:45;3.78;;;1.80;;
41323;SDS011;27073;51.128;4.220;2023-05-07T13:23:11;4.35;;;1.70;;
41323;SDS011;27073;51.128;4.220;2023-05-07T13:25:36;3.95;;;1.67;;
41323;SDS011;27073;51.128;4.220;2023-05-07T13:28:02;5.13;;;1.80;;
41323;SDS011;27073;51.128;4.220;2023-05-07T13:30:30;3.15;;;1.60;;
41323;SDS011;27073;51.128;4.220;2023-05-07T13:32:56;3.78;;;1.42;;
41323;SDS011;27073;51.128;4.220;2023-05-07T13:35:21;4.53;;;1.63;;
41323;SDS011;27073;51.128;4.220;2023-05-07T13:37:47;4.88;;;1.50;;
41323;SDS011;27073;51.128;4.220;2023-05-07T13:40:14;3.08;;;1.50;;
41323;SDS011;27073;51.128;4.220;2023-05-07T13:42:40;4.07;;;1.63;;
41323;SDS011;27073;51.128;4.220;2023-05-07T13:45:06;3.33;;;1.60;;
41323;SDS011;27073;51.128;4.220;2023-05-07T13:47:32;2.78;;;1.25;;
41323;SDS011;27073;51.128;4.220;2023-05-07T13:49:58;4.70;;;1.60;;
41323;SDS011;27073;51.128;4.220;2023-05-07T13:52:24;3.78;;;1.40;;
41323;SDS011;27073;51.128;4.220;2023-05-07T13:54:50;4.82;;;2.03;;
41323;SDS011;27073;51.128;4.220;2023-05-07T13:57:17;3.63;;;2.15;;
41323;SDS011;27073;51.128;4.220;2023-05-07T13:59:43;3.30;;;1.67;;
41323;SDS011;27073;51.128;4.220;2023-05-07T14:02:09;5.05;;;1.45;;
41323;SDS011;27073;51.128;4.220;2023-05-07T14:04:35;4.07;;;1.58;;
41323;SDS011;27073;51.128;4.220;2023-05-07T14:07:02;4.00;;;1.50;;
41323;SDS011;27073;51.128;4.220;2023-05-07T14:09:28;3.97;;;1.50;;
41323;SDS011;27073;51.128;4.220;2023-05-07T14:11:54;4.40;;;1.65;;
41323;SDS011;27073;51.128;4.220;2023-05-07T14:14:19;2.85;;;1.70;;
41323;SDS011;27073;51.128;4.220;2023-05-07T14:16:45;3.90;;;1.58;;
41323;SDS011;27073;51.128;4.220;2023-05-07T14:19:11;5.18;;;1.65;;
41323;SDS011;27073;51.128;4.220;2023-05-07T14:21:37;3.97;;;1.90;;
41323;SDS011;27073;51.128;4.220;2023-05-07T14:24:03;2.63;;;1.45;;
41323;SDS011;27073;51.128;4.220;2023-05-07T14:26:32;5.18;;;1.67;;
41323;SDS011;27073;51.128;4.220;2023-05-07T14:28:58;3.33;;;1.48;;
41323;SDS011;27073;51.128;4.220;2023-05-07T14:31:24;4.13;;;1.50;;
41323;SDS011;27073;51.128;4.220;2023-05-07T14:33:50;2.50;;;1.30;;
41323;SDS011;27073;51.128;4.220;2023-05-07T14:36:17;2.15;;;1.50;;
41323;SDS011;27073;51.128;4.220;2023-05-07T14:38:45;2.00;;;1.45;;
41323;SDS011;27073;51.128;4.220;2023-05-07T14:41:11;5.20;;;1.63;;
41323;SDS011;27073;51.128;4.220;2023-05-07T14:43:37;2.50;;;1.33;;
41323;SDS011;27073;51.128;4.220;2023-05-07T14:46:03;5.05;;;1.60;;
41323;SDS011;27073;51.128;4.220;2023-05-07T14:48:29;2.63;;;1.40;;
41323;SDS011;27073;51.128;4.220;2023-05-07T14:50:54;5.38;;;1.67;;
41323;SDS011;27073;51.128;4.220;2023-05-07T14:53:21;3.50;;;1.30;;
41323;SDS011;27073;51.128;4.220;2023-05-07T14:55:47;3.40;;;1.50;;
41323;SDS011;27073;51.128;4.220;2023-05-07T14:58:13;3.10;;;1.67;;
41323;SDS011;27073;51.128;4.220;2023-05-07T15:00:39;6.50;;;1.80;;
41323;SDS011;27073;51.128;4.220;2023-05-07T15:03:07;5.22;;;2.25;;
41323;SDS011;27073;51.128;4.220;2023-05-07T15:05:34;4.00;;;1.80;;
41323;SDS011;27073;51.128;4.220;2023-05-07T15:08:00;2.92;;;1.83;;